sensor_id;sensor_type;location;lat;lon;timestamp;P1;durP1;ratioP1;P2;durP2;ratioP2
52642;SDS011;38531;53.296;6.614;2022-07-21T00:01:44;2.95;;;1.00;;
52642;SDS011;38531;53.296;6.614;2022-07-21T00:04:10;2.67;;;1.45;;
52642;SDS011;38531;53.296;6.614;2022-07-21T00:06:36;5.18;;;1.30;;
52642;SDS011;38531;53.296;6.614;2022-07-21T00:09:02;3.58;;;1.15;;
52642;SDS011;38531;53.296;6.614;2022-07-21T00:11:28;3.25;;;1.05;;
52642;SDS011;38531;53.296;6.614;2022-07-21T00:13:53;2.10;;;1.00;;
52642;SDS011;38531;53.296;6.614;2022-07-21T00:16:19;3.65;;;1.30;;
52642;SDS011;38531;53.296;6.614;2022-07-21T00:18:45;3.90;;;1.10;;
52642;SDS011;38531;53.296;6.614;2022-07-21T00:21:11;2.53;;;1.15;;
52642;SDS011;38531;53.296;6.614;2022-07-21T00:23:36;3.03;;;1.52;;
52642;SDS011;38531;53.296;6.614;2022-07-21T00:26:03;5.55;;;1.73;;
52642;SDS011;38531;53.296;6.614;2022-07-21T00:28:29;2.20;;;1.10;;
52642;SDS011;38531;53.296;6.614;2022-07-21T00:30:54;2.58;;;1.02;;
52642;SDS011;38531;53.296;6.614;2022-07-21T00:33:20;5.50;;;1.15;;
52642;SDS011;38531;53.296;6.614;2022-07-21T00:35:46;1.95;;;1.27;;
52642;SDS011;38531;53.296;6.614;2022-07-21T00:38:11;1.52;;;1.10;;
52642;SDS011;38531;53.296;6.614;2022-07-21T00:40:37;4.32;;;1.55;;
52642;SDS011;38531;53.296;6.614;2022-07-21T00:43:03;3.10;;;1.45;;
52642;SDS011;38531;53.296;6.614;2022-07-21T00:45:28;1.98;;;1.02;;
52642;SDS011;38531;53.296;6.614;2022-07-21T00:47:55;2.90;;;1.30;;
52642;SDS011;38531;53.296;6.614;2022-07-21T00:50:20;2.70;;;1.38;;
52642;SDS011;38531;53.296;6.614;2022-07-21T00:52:46;4.47;;;1.38;;
52642;SDS011;38531;53.296;6.614;2022-07-21T00:55:14;2.58;;;1.52;;
52642;SDS011;38531;53.296;6.614;2022-07-21T00:57:42;2.58;;;1.10;;
52642;SDS011;38531;53.296;6.614;2022-07-21T01:00:10;4.35;;;1.38;;
52642;SDS011;38531;53.296;6.614;2022-07-21T01:02:39;2.90;;;1.70;;
52642;SDS011;38531;53.296;6.614;2022-07-21T01:05:06;2.20;;;1.25;;
52642;SDS011;38531;53.296;6.614;2022-07-21T01:07:40;3.38;;;2.17;;
52642;SDS011;38531;53.296;6.614;2022-07-21T01:10:07;5.45;;;2.05;;
52642;SDS011;38531;53.296;6.614;2022-07-21T01:12:33;5.53;;;1.95;;
52642;SDS011;38531;53.296;6.614;2022-07-21T01:14:59;6.10;;;1.90;;
52642;SDS011;38531;53.296;6.614;2022-07-21T01:17:25;4.20;;;2.17;;
52642;SDS011;38531;53.296;6.614;2022-07-21T01:19:51;4.55;;;1.95;;
52642;SDS011;38531;53.296;6.614;2022-07-21T01:22:21;4.95;;;1.88;;
52642;SDS011;38531;53.296;6.614;2022-07-21T01:24:47;5.63;;;2.00;;
52642;SDS011;38531;53.296;6.614;2022-07-21T01:27:13;6.05;;;2.50;;
52642;SDS011;38531;53.296;6.614;2022-07-21T01:29:38;7.50;;;2.47;;
52642;SDS011;38531;53.296;6.614;2022-07-21T01:32:04;6.55;;;2.60;;
52642;SDS011;38531;53.296;6.614;2022-07-21T01:34:30;6.53;;;2.35;;
52642;SDS011;38531;53.296;6.614;2022-07-21T01:36:56;6.82;;;2.88;;
52642;SDS011;38531;53.296;6.614;2022-07-21T01:39:21;3.85;;;2.42;;
52642;SDS011;38531;53.296;6.614;2022-07-21T01:42:06;6.18;;;3.10;;
52642;SDS011;38531;53.296;6.614;2022-07-21T01:44:31;7.60;;;2.60;;
52642;SDS011;38531;53.296;6.614;2022-07-21T01:46:57;5.68;;;2.70;;
52642;SDS011;38531;53.296;6.614;2022-07-21T01:49:23;4.13;;;2.92;;
52642;SDS011;38531;53.296;6.614;2022-07-21T01:51:49;5.50;;;2.60;;
52642;SDS011;38531;53.296;6.614;2022-07-21T01:54:15;5.35;;;2.53;;
52642;SDS011;38531;53.296;6.614;2022-07-21T01:56:41;5.55;;;2.38;;
52642;SDS011;38531;53.296;6.614;2022-07-21T01:59:07;6.30;;;2.85;;
52642;SDS011;38531;53.296;6.614;2022-07-21T02:01:32;3.55;;;2.22;;
52642;SDS011;38531;53.296;6.614;2022-07-21T02:04:00;3.67;;;2.38;;
52642;SDS011;38531;53.296;6.614;2022-07-21T02:06:27;5.00;;;2.78;;
52642;SDS011;38531;53.296;6.614;2022-07-21T02:08:54;4.97;;;2.65;;
52642;SDS011;38531;53.296;6.614;2022-07-21T02:11:20;6.35;;;3.08;;
52642;SDS011;38531;53.296;6.614;2022-07-21T02:13:46;4.70;;;2.50;;
52642;SDS011;38531;53.296;6.614;2022-07-21T02:16:15;5.30;;;3.08;;
52642;SDS011;38531;53.296;6.614;2022-07-21T02:18:41;7.93;;;3.10;;
52642;SDS011;38531;53.296;6.614;2022-07-21T02:21:06;7.82;;;3.65;;
52642;SDS011;38531;53.296;6.614;2022-07-21T02:23:33;9.05;;;4.03;;
52642;SDS011;38531;53.296;6.614;2022-07-21T02:26:01;8.38;;;5.13;;
52642;SDS011;38531;53.296;6.614;2022-07-21T02:28:27;7.80;;;3.75;;
52642;SDS011;38531;53.296;6.614;2022-07-21T02:30:53;5.22;;;3.25;;
52642;SDS011;38531;53.296;6.614;2022-07-21T02:33:20;7.45;;;2.92;;
52642;SDS011;38531;53.296;6.614;2022-07-21T02:35:46;6.35;;;3.20;;
52642;SDS011;38531;53.296;6.614;2022-07-21T02:38:12;4.97;;;2.58;;
52642;SDS011;38531;53.296;6.614;2022-07-21T02:40:38;6.65;;;3.55;;
52642;SDS011;38531;53.296;6.614;2022-07-21T02:43:05;4.45;;;2.60;;
52642;SDS011;38531;53.296;6.614;2022-07-21T02:45:31;5.20;;;3.03;;
52642;SDS011;38531;53.296;6.614;2022-07-21T02:48:03;4.57;;;2.83;;
52642;SDS011;38531;53.296;6.614;2022-07-21T02:50:31;5.43;;;2.78;;
52642;SDS011;38531;53.296;6.614;2022-07-21T02:52:59;6.32;;;3.63;;
52642;SDS011;38531;53.296;6.614;2022-07-21T02:55:27;5.68;;;3.03;;
52642;SDS011;38531;53.296;6.614;2022-07-21T03:00:58;3.78;;;2.53;;
52642;SDS011;38531;53.296;6.614;2022-07-21T03:03:28;6.43;;;3.38;;
52642;SDS011;38531;53.296;6.614;2022-07-21T03:05:56;6.00;;;2.50;;
52642;SDS011;38531;53.296;6.614;2022-07-21T03:08:22;5.63;;;2.63;;
52642;SDS011;38531;53.296;6.614;2022-07-21T03:10:49;5.90;;;2.78;;
52642;SDS011;38531;53.296;6.614;2022-07-21T03:13:16;5.85;;;2.92;;
52642;SDS011;38531;53.296;6.614;2022-07-21T03:15:42;6.32;;;3.13;;
52642;SDS011;38531;53.296;6.614;2022-07-21T03:18:08;5.95;;;3.42;;
52642;SDS011;38531;53.296;6.614;2022-07-21T03:20:35;5.57;;;3.03;;
52642;SDS011;38531;53.296;6.614;2022-07-21T03:23:02;6.22;;;2.97;;
52642;SDS011;38531;53.296;6.614;2022-07-21T03:25:28;5.30;;;3.40;;
52642;SDS011;38531;53.296;6.614;2022-07-21T03:27:54;4.95;;;3.03;;
52642;SDS011;38531;53.296;6.614;2022-07-21T03:30:21;5.18;;;3.03;;
52642;SDS011;38531;53.296;6.614;2022-07-21T03:32:47;5.32;;;2.70;;
52642;SDS011;38531;53.296;6.614;2022-07-21T03:35:13;3.85;;;2.53;;
52642;SDS011;38531;53.296;6.614;2022-07-21T03:37:42;5.20;;;2.95;;
52642;SDS011;38531;53.296;6.614;2022-07-21T03:40:10;5.15;;;3.05;;
52642;SDS011;38531;53.296;6.614;2022-07-21T03:42:37;8.10;;;3.83;;
52642;SDS011;38531;53.296;6.614;2022-07-21T03:45:03;5.57;;;3.40;;
52642;SDS011;38531;53.296;6.614;2022-07-21T03:47:30;5.25;;;2.95;;
52642;SDS011;38531;53.296;6.614;2022-07-21T03:49:55;5.00;;;2.85;;
52642;SDS011;38531;53.296;6.614;2022-07-21T03:52:21;4.70;;;2.90;;
52642;SDS011;38531;53.296;6.614;2022-07-21T03:54:47;4.30;;;3.03;;
52642;SDS011;38531;53.296;6.614;2022-07-21T03:57:12;7.28;;;3.35;;
52642;SDS011;38531;53.296;6.614;2022-07-21T03:59:38;5.25;;;2.95;;
52642;SDS011;38531;53.296;6.614;2022-07-21T04:02:04;6.10;;;3.55;;
52642;SDS011;38531;53.296;6.614;2022-07-21T04:04:29;4.90;;;3.10;;
52642;SDS011;38531;53.296;6.614;2022-07-21T04:06:55;5.88;;;2.95;;
52642;SDS011;38531;53.296;6.614;2022-07-21T04:09:21;6.05;;;3.17;;
52642;SDS011;38531;53.296;6.614;2022-07-21T04:11:47;5.20;;;3.08;;
52642;SDS011;38531;53.296;6.614;2022-07-21T04:14:13;5.13;;;2.85;;
52642;SDS011;38531;53.296;6.614;2022-07-21T04:16:38;6.57;;;3.38;;
52642;SDS011;38531;53.296;6.614;2022-07-21T04:19:04;5.10;;;3.28;;
52642;SDS011;38531;53.296;6.614;2022-07-21T04:21:30;6.32;;;3.42;;
52642;SDS011;38531;53.296;6.614;2022-07-21T04:23:56;4.93;;;3.13;;
52642;SDS011;38531;53.296;6.614;2022-07-21T04:26:21;6.63;;;3.10;;
52642;SDS011;38531;53.296;6.614;2022-07-21T04:28:47;5.13;;;2.95;;
52642;SDS011;38531;53.296;6.614;2022-07-21T04:31:13;4.97;;;3.08;;
52642;SDS011;38531;53.296;6.614;2022-07-21T04:33:38;5.53;;;3.17;;
52642;SDS011;38531;53.296;6.614;2022-07-21T04:36:04;5.97;;;3.92;;
52642;SDS011;38531;53.296;6.614;2022-07-21T04:38:30;5.85;;;3.13;;
52642;SDS011;38531;53.296;6.614;2022-07-21T04:40:56;6.35;;;3.13;;
52642;SDS011;38531;53.296;6.614;2022-07-21T04:43:21;5.43;;;2.90;;
52642;SDS011;38531;53.296;6.614;2022-07-21T04:45:47;4.40;;;2.67;;
52642;SDS011;38531;53.296;6.614;2022-07-21T04:48:13;6.32;;;2.78;;
52642;SDS011;38531;53.296;6.614;2022-07-21T04:50:38;5.95;;;3.15;;
52642;SDS011;38531;53.296;6.614;2022-07-21T04:53:04;6.05;;;3.72;;
52642;SDS011;38531;53.296;6.614;2022-07-21T04:55:30;4.63;;;3.58;;
52642;SDS011;38531;53.296;6.614;2022-07-21T04:57:56;6.40;;;3.40;;
52642;SDS011;38531;53.296;6.614;2022-07-21T05:00:24;4.75;;;3.30;;
52642;SDS011;38531;53.296;6.614;2022-07-21T05:02:50;6.53;;;3.75;;
52642;SDS011;38531;53.296;6.614;2022-07-21T05:05:17;6.85;;;4.07;;
52642;SDS011;38531;53.296;6.614;2022-07-21T05:07:43;8.05;;;4.75;;
52642;SDS011;38531;53.296;6.614;2022-07-21T05:10:10;5.97;;;3.90;;
52642;SDS011;38531;53.296;6.614;2022-07-21T05:12:38;5.95;;;3.03;;
52642;SDS011;38531;53.296;6.614;2022-07-21T05:15:04;6.47;;;4.50;;
52642;SDS011;38531;53.296;6.614;2022-07-21T05:17:31;8.15;;;5.25;;
52642;SDS011;38531;53.296;6.614;2022-07-21T05:19:58;6.82;;;4.20;;
52642;SDS011;38531;53.296;6.614;2022-07-21T05:22:24;6.43;;;4.93;;
52642;SDS011;38531;53.296;6.614;2022-07-21T05:24:50;8.57;;;6.32;;
52642;SDS011;38531;53.296;6.614;2022-07-21T05:27:16;12.43;;;7.38;;
52642;SDS011;38531;53.296;6.614;2022-07-21T05:36:07;8.52;;;4.95;;
52642;SDS011;38531;53.296;6.614;2022-07-21T05:38:33;8.30;;;5.47;;
52642;SDS011;38531;53.296;6.614;2022-07-21T05:40:58;9.10;;;6.25;;
52642;SDS011;38531;53.296;6.614;2022-07-21T05:43:25;10.57;;;6.22;;
52642;SDS011;38531;53.296;6.614;2022-07-21T05:45:51;7.53;;;5.03;;
52642;SDS011;38531;53.296;6.614;2022-07-21T05:48:17;11.65;;;7.72;;
52642;SDS011;38531;53.296;6.614;2022-07-21T05:50:43;9.80;;;6.82;;
52642;SDS011;38531;53.296;6.614;2022-07-21T05:53:09;11.13;;;7.40;;
52642;SDS011;38531;53.296;6.614;2022-07-21T05:55:35;8.75;;;5.80;;
52642;SDS011;38531;53.296;6.614;2022-07-21T05:58:01;9.70;;;5.75;;
52642;SDS011;38531;53.296;6.614;2022-07-21T06:00:27;8.15;;;5.47;;
52642;SDS011;38531;53.296;6.614;2022-07-21T06:02:53;7.57;;;5.00;;
52642;SDS011;38531;53.296;6.614;2022-07-21T06:05:19;7.28;;;5.18;;
52642;SDS011;38531;53.296;6.614;2022-07-21T06:07:45;10.00;;;7.13;;
52642;SDS011;38531;53.296;6.614;2022-07-21T06:10:10;9.68;;;7.28;;
52642;SDS011;38531;53.296;6.614;2022-07-21T06:12:37;8.02;;;5.82;;
52642;SDS011;38531;53.296;6.614;2022-07-21T06:15:03;10.27;;;7.00;;
52642;SDS011;38531;53.296;6.614;2022-07-21T06:17:29;11.00;;;6.72;;
52642;SDS011;38531;53.296;6.614;2022-07-21T06:19:57;8.52;;;6.07;;
52642;SDS011;38531;53.296;6.614;2022-07-21T06:22:23;8.75;;;5.22;;
52642;SDS011;38531;53.296;6.614;2022-07-21T06:24:49;8.82;;;6.15;;
52642;SDS011;38531;53.296;6.614;2022-07-21T06:27:24;11.02;;;6.15;;
52642;SDS011;38531;53.296;6.614;2022-07-21T06:30:02;8.18;;;5.30;;
52642;SDS011;38531;53.296;6.614;2022-07-21T06:32:51;9.65;;;6.38;;
52642;SDS011;38531;53.296;6.614;2022-07-21T06:38:21;7.05;;;5.40;;
52642;SDS011;38531;53.296;6.614;2022-07-21T07:23:41;7.60;;;5.38;;
52642;SDS011;38531;53.296;6.614;2022-07-21T07:26:08;8.18;;;5.68;;
52642;SDS011;38531;53.296;6.614;2022-07-21T07:28:34;9.15;;;5.10;;
52642;SDS011;38531;53.296;6.614;2022-07-21T07:31:00;7.60;;;4.72;;
52642;SDS011;38531;53.296;6.614;2022-07-21T07:33:26;6.68;;;5.63;;
52642;SDS011;38531;53.296;6.614;2022-07-21T07:35:59;8.38;;;5.80;;
52642;SDS011;38531;53.296;6.614;2022-07-21T07:38:38;9.95;;;7.30;;
52642;SDS011;38531;53.296;6.614;2022-07-21T07:41:04;13.27;;;9.07;;
52642;SDS011;38531;53.296;6.614;2022-07-21T07:43:30;12.15;;;7.95;;
52642;SDS011;38531;53.296;6.614;2022-07-21T08:07:20;11.20;;;8.50;;
52642;SDS011;38531;53.296;6.614;2022-07-21T08:10:06;9.82;;;7.15;;
52642;SDS011;38531;53.296;6.614;2022-07-21T08:12:43;9.90;;;6.72;;
52642;SDS011;38531;53.296;6.614;2022-07-21T08:15:21;8.48;;;6.07;;
52642;SDS011;38531;53.296;6.614;2022-07-21T08:17:47;10.35;;;7.85;;
52642;SDS011;38531;53.296;6.614;2022-07-21T08:20:12;8.90;;;6.80;;
52642;SDS011;38531;53.296;6.614;2022-07-21T08:22:38;9.30;;;7.05;;
52642;SDS011;38531;53.296;6.614;2022-07-21T08:25:04;9.02;;;6.90;;
52642;SDS011;38531;53.296;6.614;2022-07-21T08:27:30;8.70;;;7.03;;
52642;SDS011;38531;53.296;6.614;2022-07-21T08:29:56;8.02;;;5.82;;
52642;SDS011;38531;53.296;6.614;2022-07-21T08:32:21;8.40;;;5.97;;
52642;SDS011;38531;53.296;6.614;2022-07-21T08:34:47;6.88;;;5.60;;
52642;SDS011;38531;53.296;6.614;2022-07-21T08:37:13;9.48;;;6.03;;
52642;SDS011;38531;53.296;6.614;2022-07-21T08:39:40;9.25;;;6.57;;
52642;SDS011;38531;53.296;6.614;2022-07-21T08:42:06;7.65;;;5.63;;
52642;SDS011;38531;53.296;6.614;2022-07-21T08:44:33;6.60;;;5.47;;
52642;SDS011;38531;53.296;6.614;2022-07-21T08:47:00;7.60;;;5.90;;
52642;SDS011;38531;53.296;6.614;2022-07-21T08:49:26;9.35;;;6.35;;
52642;SDS011;38531;53.296;6.614;2022-07-21T08:51:54;11.85;;;7.50;;
52642;SDS011;38531;53.296;6.614;2022-07-21T08:54:20;8.82;;;6.15;;
52642;SDS011;38531;53.296;6.614;2022-07-21T08:56:46;7.00;;;5.60;;
52642;SDS011;38531;53.296;6.614;2022-07-21T08:59:12;9.13;;;5.75;;
52642;SDS011;38531;53.296;6.614;2022-07-21T09:01:38;7.93;;;5.72;;
52642;SDS011;38531;53.296;6.614;2022-07-21T09:07:03;9.77;;;6.15;;
52642;SDS011;38531;53.296;6.614;2022-07-21T09:09:32;10.32;;;7.30;;
52642;SDS011;38531;53.296;6.614;2022-07-21T09:11:59;9.60;;;6.05;;
52642;SDS011;38531;53.296;6.614;2022-07-21T09:14:28;9.43;;;6.30;;
52642;SDS011;38531;53.296;6.614;2022-07-21T09:16:59;8.95;;;5.70;;
52642;SDS011;38531;53.296;6.614;2022-07-21T09:19:31;8.20;;;5.88;;
52642;SDS011;38531;53.296;6.614;2022-07-21T09:22:04;9.65;;;6.18;;
52642;SDS011;38531;53.296;6.614;2022-07-21T09:24:33;8.73;;;6.03;;
52642;SDS011;38531;53.296;6.614;2022-07-21T09:27:16;10.93;;;6.45;;
52642;SDS011;38531;53.296;6.614;2022-07-21T09:29:44;12.98;;;7.80;;
52642;SDS011;38531;53.296;6.614;2022-07-21T09:37:36;12.68;;;7.97;;
52642;SDS011;38531;53.296;6.614;2022-07-21T09:40:06;9.80;;;6.88;;
52642;SDS011;38531;53.296;6.614;2022-07-21T09:42:35;10.52;;;6.30;;
52642;SDS011;38531;53.296;6.614;2022-07-21T09:45:07;7.80;;;5.72;;
52642;SDS011;38531;53.296;6.614;2022-07-21T09:47:33;10.50;;;7.40;;
52642;SDS011;38531;53.296;6.614;2022-07-21T09:50:00;11.52;;;8.27;;
52642;SDS011;38531;53.296;6.614;2022-07-21T09:52:30;11.60;;;8.02;;
52642;SDS011;38531;53.296;6.614;2022-07-21T09:55:11;13.50;;;9.57;;
52642;SDS011;38531;53.296;6.614;2022-07-21T09:57:39;9.55;;;6.78;;
52642;SDS011;38531;53.296;6.614;2022-07-21T10:07:11;11.50;;;8.88;;
52642;SDS011;38531;53.296;6.614;2022-07-21T10:09:39;11.15;;;8.52;;
52642;SDS011;38531;53.296;6.614;2022-07-21T10:12:16;16.50;;;12.20;;
52642;SDS011;38531;53.296;6.614;2022-07-21T10:14:43;11.98;;;9.15;;
52642;SDS011;38531;53.296;6.614;2022-07-21T10:17:14;12.18;;;9.15;;
52642;SDS011;38531;53.296;6.614;2022-07-21T10:23:06;14.32;;;10.40;;
52642;SDS011;38531;53.296;6.614;2022-07-21T10:26:08;13.50;;;9.75;;
52642;SDS011;38531;53.296;6.614;2022-07-21T10:28:35;15.35;;;10.88;;
52642;SDS011;38531;53.296;6.614;2022-07-21T10:31:15;15.02;;;10.95;;
52642;SDS011;38531;53.296;6.614;2022-07-21T10:41:47;14.43;;;10.73;;
52642;SDS011;38531;53.296;6.614;2022-07-21T10:47:03;16.63;;;11.95;;
52642;SDS011;38531;53.296;6.614;2022-07-21T10:57:49;16.48;;;11.88;;
52642;SDS011;38531;53.296;6.614;2022-07-21T11:00:36;13.20;;;10.82;;
52642;SDS011;38531;53.296;6.614;2022-07-21T11:03:16;17.40;;;12.60;;
52642;SDS011;38531;53.296;6.614;2022-07-21T11:06:08;16.00;;;12.38;;
52642;SDS011;38531;53.296;6.614;2022-07-21T11:08:38;13.27;;;11.15;;
52642;SDS011;38531;53.296;6.614;2022-07-21T11:22:24;10.93;;;9.18;;
52642;SDS011;38531;53.296;6.614;2022-07-21T11:27:26;9.68;;;7.40;;
52642;SDS011;38531;53.296;6.614;2022-07-21T11:29:58;10.65;;;8.43;;
52642;SDS011;38531;53.296;6.614;2022-07-21T11:32:25;14.13;;;11.52;;
52642;SDS011;38531;53.296;6.614;2022-07-21T11:34:56;9.55;;;7.22;;
52642;SDS011;38531;53.296;6.614;2022-07-21T11:37:33;8.98;;;6.82;;
52642;SDS011;38531;53.296;6.614;2022-07-21T11:49:15;8.77;;;6.93;;
52642;SDS011;38531;53.296;6.614;2022-07-21T11:52:03;7.57;;;6.10;;
52642;SDS011;38531;53.296;6.614;2022-07-21T11:55:01;7.50;;;5.20;;
52642;SDS011;38531;53.296;6.614;2022-07-21T11:57:31;7.45;;;5.00;;
52642;SDS011;38531;53.296;6.614;2022-07-21T12:13:57;6.10;;;4.63;;
52642;SDS011;38531;53.296;6.614;2022-07-21T12:16:24;6.90;;;4.80;;
52642;SDS011;38531;53.296;6.614;2022-07-21T12:19:07;7.38;;;5.32;;
52642;SDS011;38531;53.296;6.614;2022-07-21T12:21:47;6.20;;;5.03;;
52642;SDS011;38531;53.296;6.614;2022-07-21T12:24:16;5.78;;;4.57;;
52642;SDS011;38531;53.296;6.614;2022-07-21T12:26:42;7.35;;;4.30;;
52642;SDS011;38531;53.296;6.614;2022-07-21T12:29:09;5.90;;;5.03;;
52642;SDS011;38531;53.296;6.614;2022-07-21T12:31:35;5.35;;;3.88;;
52642;SDS011;38531;53.296;6.614;2022-07-21T12:34:11;5.10;;;3.38;;
52642;SDS011;38531;53.296;6.614;2022-07-21T12:36:39;4.00;;;3.45;;
52642;SDS011;38531;53.296;6.614;2022-07-21T12:39:15;5.57;;;4.13;;
52642;SDS011;38531;53.296;6.614;2022-07-21T12:42:03;3.40;;;2.72;;
52642;SDS011;38531;53.296;6.614;2022-07-21T12:44:31;3.45;;;3.00;;
52642;SDS011;38531;53.296;6.614;2022-07-21T12:46:57;5.03;;;3.40;;
52642;SDS011;38531;53.296;6.614;2022-07-21T12:52:40;4.25;;;3.08;;
52642;SDS011;38531;53.296;6.614;2022-07-21T12:55:06;6.28;;;4.40;;
52642;SDS011;38531;53.296;6.614;2022-07-21T12:57:33;4.85;;;4.25;;
52642;SDS011;38531;53.296;6.614;2022-07-21T13:00:08;6.47;;;4.40;;
52642;SDS011;38531;53.296;6.614;2022-07-21T13:19:47;4.82;;;2.75;;
52642;SDS011;38531;53.296;6.614;2022-07-21T13:27:50;3.30;;;1.90;;
52642;SDS011;38531;53.296;6.614;2022-07-21T13:30:16;3.65;;;2.05;;
52642;SDS011;38531;53.296;6.614;2022-07-21T13:32:42;4.88;;;2.83;;
52642;SDS011;38531;53.296;6.614;2022-07-21T13:35:07;3.72;;;2.03;;
52642;SDS011;38531;53.296;6.614;2022-07-21T13:37:34;2.67;;;1.70;;
52642;SDS011;38531;53.296;6.614;2022-07-21T13:40:00;2.60;;;1.52;;
52642;SDS011;38531;53.296;6.614;2022-07-21T13:42:25;3.65;;;1.50;;
52642;SDS011;38531;53.296;6.614;2022-07-21T13:44:51;2.20;;;1.13;;
52642;SDS011;38531;53.296;6.614;2022-07-21T13:47:17;3.83;;;1.30;;
52642;SDS011;38531;53.296;6.614;2022-07-21T13:49:43;3.47;;;1.75;;
52642;SDS011;38531;53.296;6.614;2022-07-21T13:52:10;1.95;;;1.13;;
52642;SDS011;38531;53.296;6.614;2022-07-21T13:54:36;2.05;;;1.05;;
52642;SDS011;38531;53.296;6.614;2022-07-21T13:57:02;2.75;;;1.30;;
52642;SDS011;38531;53.296;6.614;2022-07-21T13:59:28;2.80;;;1.23;;
52642;SDS011;38531;53.296;6.614;2022-07-21T14:01:53;4.35;;;1.40;;
52642;SDS011;38531;53.296;6.614;2022-07-21T14:04:24;4.38;;;1.35;;
52642;SDS011;38531;53.296;6.614;2022-07-21T14:06:50;1.40;;;0.88;;
52642;SDS011;38531;53.296;6.614;2022-07-21T14:09:17;1.85;;;1.10;;
52642;SDS011;38531;53.296;6.614;2022-07-21T14:11:44;2.40;;;1.10;;
52642;SDS011;38531;53.296;6.614;2022-07-21T14:14:10;1.38;;;0.95;;
52642;SDS011;38531;53.296;6.614;2022-07-21T14:16:42;2.13;;;0.90;;
52642;SDS011;38531;53.296;6.614;2022-07-21T14:19:10;1.65;;;1.35;;
52642;SDS011;38531;53.296;6.614;2022-07-21T14:21:39;2.55;;;1.20;;
52642;SDS011;38531;53.296;6.614;2022-07-21T14:24:05;1.45;;;1.00;;
52642;SDS011;38531;53.296;6.614;2022-07-21T14:26:49;1.05;;;0.90;;
52642;SDS011;38531;53.296;6.614;2022-07-21T14:29:32;1.83;;;1.00;;
52642;SDS011;38531;53.296;6.614;2022-07-21T14:31:58;1.90;;;0.93;;
52642;SDS011;38531;53.296;6.614;2022-07-21T14:34:23;2.75;;;1.10;;
52642;SDS011;38531;53.296;6.614;2022-07-21T14:36:49;13.20;;;1.20;;
52642;SDS011;38531;53.296;6.614;2022-07-21T14:39:16;2.38;;;1.10;;
52642;SDS011;38531;53.296;6.614;2022-07-21T14:41:43;1.83;;;0.80;;
52642;SDS011;38531;53.296;6.614;2022-07-21T14:44:10;3.00;;;1.10;;
52642;SDS011;38531;53.296;6.614;2022-07-21T14:46:36;1.50;;;0.90;;
52642;SDS011;38531;53.296;6.614;2022-07-21T14:49:02;2.97;;;1.05;;
52642;SDS011;38531;53.296;6.614;2022-07-21T14:51:28;1.70;;;1.00;;
52642;SDS011;38531;53.296;6.614;2022-07-21T14:53:54;1.45;;;0.80;;
52642;SDS011;38531;53.296;6.614;2022-07-21T14:56:20;3.15;;;1.10;;
52642;SDS011;38531;53.296;6.614;2022-07-21T14:58:46;1.30;;;0.88;;
52642;SDS011;38531;53.296;6.614;2022-07-21T15:01:11;2.42;;;1.08;;
52642;SDS011;38531;53.296;6.614;2022-07-21T15:03:37;2.00;;;1.15;;
52642;SDS011;38531;53.296;6.614;2022-07-21T15:06:03;3.13;;;1.10;;
52642;SDS011;38531;53.296;6.614;2022-07-21T15:08:30;3.67;;;1.38;;
52642;SDS011;38531;53.296;6.614;2022-07-21T15:10:56;2.60;;;1.40;;
52642;SDS011;38531;53.296;6.614;2022-07-21T15:13:23;2.33;;;1.33;;
52642;SDS011;38531;53.296;6.614;2022-07-21T15:15:52;4.18;;;1.67;;
52642;SDS011;38531;53.296;6.614;2022-07-21T15:18:18;2.38;;;1.20;;
52642;SDS011;38531;53.296;6.614;2022-07-21T15:20:45;2.95;;;1.67;;
52642;SDS011;38531;53.296;6.614;2022-07-21T15:23:11;2.47;;;2.08;;
52642;SDS011;38531;53.296;6.614;2022-07-21T15:25:47;2.85;;;1.77;;
52642;SDS011;38531;53.296;6.614;2022-07-21T15:28:13;3.97;;;1.58;;
52642;SDS011;38531;53.296;6.614;2022-07-21T15:30:39;2.70;;;1.55;;
52642;SDS011;38531;53.296;6.614;2022-07-21T15:36:46;3.67;;;1.92;;
52642;SDS011;38531;53.296;6.614;2022-07-21T15:39:11;3.25;;;1.30;;
52642;SDS011;38531;53.296;6.614;2022-07-21T15:41:38;3.05;;;1.80;;
52642;SDS011;38531;53.296;6.614;2022-07-21T15:44:04;2.63;;;1.80;;
52642;SDS011;38531;53.296;6.614;2022-07-21T15:46:48;2.92;;;1.73;;
52642;SDS011;38531;53.296;6.614;2022-07-21T15:53:09;2.70;;;1.50;;
52642;SDS011;38531;53.296;6.614;2022-07-21T15:55:37;4.07;;;1.67;;
52642;SDS011;38531;53.296;6.614;2022-07-21T15:58:05;3.10;;;1.88;;
52642;SDS011;38531;53.296;6.614;2022-07-21T16:00:31;4.35;;;1.50;;
52642;SDS011;38531;53.296;6.614;2022-07-21T16:02:57;2.30;;;1.40;;
52642;SDS011;38531;53.296;6.614;2022-07-21T16:05:26;4.07;;;1.75;;
52642;SDS011;38531;53.296;6.614;2022-07-21T16:07:52;4.03;;;2.22;;
52642;SDS011;38531;53.296;6.614;2022-07-21T16:10:20;3.67;;;2.50;;
52642;SDS011;38531;53.296;6.614;2022-07-21T16:12:49;7.05;;;3.40;;
52642;SDS011;38531;53.296;6.614;2022-07-21T16:15:25;6.43;;;3.83;;
52642;SDS011;38531;53.296;6.614;2022-07-21T16:25:00;6.57;;;3.70;;
52642;SDS011;38531;53.296;6.614;2022-07-21T16:27:38;7.38;;;4.13;;
52642;SDS011;38531;53.296;6.614;2022-07-21T16:30:04;5.55;;;3.17;;
52642;SDS011;38531;53.296;6.614;2022-07-21T16:32:34;8.77;;;5.32;;
52642;SDS011;38531;53.296;6.614;2022-07-21T16:35:03;8.20;;;5.32;;
52642;SDS011;38531;53.296;6.614;2022-07-21T16:37:29;7.13;;;3.83;;
52642;SDS011;38531;53.296;6.614;2022-07-21T16:39:55;5.63;;;2.97;;
52642;SDS011;38531;53.296;6.614;2022-07-21T16:42:24;5.57;;;3.10;;
52642;SDS011;38531;53.296;6.614;2022-07-21T16:44:50;13.27;;;4.45;;
52642;SDS011;38531;53.296;6.614;2022-07-21T16:47:15;7.53;;;2.78;;
52642;SDS011;38531;53.296;6.614;2022-07-21T16:49:45;6.15;;;2.05;;
52642;SDS011;38531;53.296;6.614;2022-07-21T16:52:14;5.78;;;2.13;;
52642;SDS011;38531;53.296;6.614;2022-07-21T16:54:43;6.13;;;1.75;;
52642;SDS011;38531;53.296;6.614;2022-07-21T16:57:09;4.47;;;1.40;;
52642;SDS011;38531;53.296;6.614;2022-07-21T16:59:36;7.35;;;2.03;;
52642;SDS011;38531;53.296;6.614;2022-07-21T17:05:04;3.97;;;1.40;;
52642;SDS011;38531;53.296;6.614;2022-07-21T17:07:30;5.05;;;1.48;;
52642;SDS011;38531;53.296;6.614;2022-07-21T17:09:59;6.72;;;1.23;;
52642;SDS011;38531;53.296;6.614;2022-07-21T17:12:24;5.15;;;1.95;;
52642;SDS011;38531;53.296;6.614;2022-07-21T17:15:08;6.15;;;1.40;;
52642;SDS011;38531;53.296;6.614;2022-07-21T17:18:03;5.45;;;0.93;;
52642;SDS011;38531;53.296;6.614;2022-07-21T17:21:10;3.22;;;0.90;;
52642;SDS011;38531;53.296;6.614;2022-07-21T17:23:37;5.82;;;0.80;;
52642;SDS011;38531;53.296;6.614;2022-07-21T17:26:03;4.10;;;0.80;;
52642;SDS011;38531;53.296;6.614;2022-07-21T17:28:46;2.72;;;0.70;;
52642;SDS011;38531;53.296;6.614;2022-07-21T17:48:41;1.80;;;0.40;;
52642;SDS011;38531;53.296;6.614;2022-07-21T17:51:09;1.35;;;0.28;;
52642;SDS011;38531;53.296;6.614;2022-07-21T17:53:38;1.80;;;0.30;;
52642;SDS011;38531;53.296;6.614;2022-07-21T17:56:04;0.63;;;0.30;;
52642;SDS011;38531;53.296;6.614;2022-07-21T17:58:30;1.77;;;0.30;;
52642;SDS011;38531;53.296;6.614;2022-07-21T18:01:14;0.85;;;0.50;;
52642;SDS011;38531;53.296;6.614;2022-07-21T18:03:46;1.45;;;0.30;;
52642;SDS011;38531;53.296;6.614;2022-07-21T18:06:13;2.42;;;0.43;;
52642;SDS011;38531;53.296;6.614;2022-07-21T18:08:40;1.02;;;0.30;;
52642;SDS011;38531;53.296;6.614;2022-07-21T18:11:06;1.27;;;0.30;;
52642;SDS011;38531;53.296;6.614;2022-07-21T18:13:32;1.17;;;0.30;;
52642;SDS011;38531;53.296;6.614;2022-07-21T18:15:58;1.90;;;0.20;;
52642;SDS011;38531;53.296;6.614;2022-07-21T18:22:06;1.90;;;0.30;;
52642;SDS011;38531;53.296;6.614;2022-07-21T18:24:33;1.50;;;0.20;;
52642;SDS011;38531;53.296;6.614;2022-07-21T18:27:02;3.30;;;0.40;;
52642;SDS011;38531;53.296;6.614;2022-07-21T18:29:28;1.05;;;0.20;;